sensor_id;sensor_type;location;lat;lon;timestamp;temperature;humidity
28654;DHT22;24320;56.980;24.336;2023-08-21T00:01:47;19.80;99.90
28654;DHT22;24320;56.980;24.336;2023-08-21T00:04:14;19.70;99.90
28654;DHT22;24320;56.980;24.336;2023-08-21T00:06:41;19.80;99.90
28654;DHT22;24320;56.980;24.336;2023-08-21T00:09:08;19.80;99.90
28654;DHT22;24320;56.980;24.336;2023-08-21T00:11:35;19.80;99.90
28654;DHT22;24320;56.980;24.336;2023-08-21T00:14:02;19.80;99.90
28654;DHT22;24320;56.980;24.336;2023-08-21T00:16:29;19.80;99.90
28654;DHT22;24320;56.980;24.336;2023-08-21T00:18:56;19.80;99.90
28654;DHT22;24320;56.980;24.336;2023-08-21T00:21:23;19.80;99.90
28654;DHT22;24320;56.980;24.336;2023-08-21T00:23:50;19.80;99.90
28654;DHT22;24320;56.980;24.336;2023-08-21T00:26:18;19.80;99.90
28654;DHT22;24320;56.980;24.336;2023-08-21T00:28:45;19.80;99.90
28654;DHT22;24320;56.980;24.336;2023-08-21T00:31:12;19.70;99.90
28654;DHT22;24320;56.980;24.336;2023-08-21T00:33:39;19.80;99.90
28654;DHT22;24320;56.980;24.336;2023-08-21T00:36:06;19.80;99.90
28654;DHT22;24320;56.980;24.336;2023-08-21T00:38:34;19.70;99.90
28654;DHT22;24320;56.980;24.336;2023-08-21T00:41:01;19.70;99.90
28654;DHT22;24320;56.980;24.336;2023-08-21T00:43:28;19.70;99.90
28654;DHT22;24320;56.980;24.336;2023-08-21T00:45:55;19.70;99.90
28654;DHT22;24320;56.980;24.336;2023-08-21T00:48:22;19.70;99.90
28654;DHT22;24320;56.980;24.336;2023-08-21T00:50:50;19.80;99.90
28654;DHT22;24320;56.980;24.336;2023-08-21T00:53:17;19.70;99.90
28654;DHT22;24320;56.980;24.336;2023-08-21T00:55:45;19.80;99.90
28654;DHT22;24320;56.980;24.336;2023-08-21T00:58:12;19.80;99.90
28654;DHT22;24320;56.980;24.336;2023-08-21T01:00:41;19.70;99.90
28654;DHT22;24320;56.980;24.336;2023-08-21T01:03:08;19.70;99.90
28654;DHT22;24320;56.980;24.336;2023-08-21T01:05:36;19.70;99.90
28654;DHT22;24320;56.980;24.336;2023-08-21T01:08:06;19.70;99.90
28654;DHT22;24320;56.980;24.336;2023-08-21T01:15:55;19.80;99.90
28654;DHT22;24320;56.980;24.336;2023-08-21T01:18:23;19.80;99.90
28654;DHT22;24320;56.980;24.336;2023-08-21T01:20:51;19.80;99.90
28654;DHT22;24320;56.980;24.336;2023-08-21T01:23:34;19.80;99.90
28654;DHT22;24320;56.980;24.336;2023-08-21T01:26:02;19.80;99.90
28654;DHT22;24320;56.980;24.336;2023-08-21T01:28:30;19.70;99.90
28654;DHT22;24320;56.980;24.336;2023-08-21T01:33:45;19.70;99.90
28654;DHT22;24320;56.980;24.336;2023-08-21T01:36:15;19.70;99.90
28654;DHT22;24320;56.980;24.336;2023-08-21T01:38:43;19.70;99.90
28654;DHT22;24320;56.980;24.336;2023-08-21T01:41:10;19.70;99.90
28654;DHT22;24320;56.980;24.336;2023-08-21T01:43:37;19.70;99.90
28654;DHT22;24320;56.980;24.336;2023-08-21T01:46:04;19.60;99.90
28654;DHT22;24320;56.980;24.336;2023-08-21T01:48:31;19.60;99.90
28654;DHT22;24320;56.980;24.336;2023-08-21T01:51:01;19.50;99.90
28654;DHT22;24320;56.980;24.336;2023-08-21T01:53:28;19.50;99.90
28654;DHT22;24320;56.980;24.336;2023-08-21T01:55:55;19.50;99.90
28654;DHT22;24320;56.980;24.336;2023-08-21T01:58:22;19.40;99.90
28654;DHT22;24320;56.980;24.336;2023-08-21T02:00:49;19.40;99.90
28654;DHT22;24320;56.980;24.336;2023-08-21T02:03:16;19.40;99.90
28654;DHT22;24320;56.980;24.336;2023-08-21T02:05:44;19.30;99.90
28654;DHT22;24320;56.980;24.336;2023-08-21T02:08:14;19.30;99.90
28654;DHT22;24320;56.980;24.336;2023-08-21T02:10:51;19.30;99.90
28654;DHT22;24320;56.980;24.336;2023-08-21T02:13:19;19.30;99.90
28654;DHT22;24320;56.980;24.336;2023-08-21T02:15:46;19.20;99.90
28654;DHT22;24320;56.980;24.336;2023-08-21T02:18:14;19.20;99.90
28654;DHT22;24320;56.980;24.336;2023-08-21T02:20:41;19.20;99.90
28654;DHT22;24320;56.980;24.336;2023-08-21T02:23:08;19.20;99.90
28654;DHT22;24320;56.980;24.336;2023-08-21T02:25:35;19.20;99.90
28654;DHT22;24320;56.980;24.336;2023-08-21T02:28:02;19.20;99.90
28654;DHT22;24320;56.980;24.336;2023-08-21T02:30:31;19.10;99.90
28654;DHT22;24320;56.980;24.336;2023-08-21T02:32:58;19.10;99.90
28654;DHT22;24320;56.980;24.336;2023-08-21T02:35:25;19.10;99.90
28654;DHT22;24320;56.980;24.336;2023-08-21T02:37:52;19.00;99.90
28654;DHT22;24320;56.980;24.336;2023-08-21T02:40:19;19.10;99.90
28654;DHT22;24320;56.980;24.336;2023-08-21T02:42:46;19.10;99.90
28654;DHT22;24320;56.980;24.336;2023-08-21T02:45:13;19.10;99.90
28654;DHT22;24320;56.980;24.336;2023-08-21T02:47:41;19.10;99.90
28654;DHT22;24320;56.980;24.336;2023-08-21T02:50:09;19.20;99.90
28654;DHT22;24320;56.980;24.336;2023-08-21T02:52:37;19.20;99.90
28654;DHT22;24320;56.980;24.336;2023-08-21T02:55:05;19.20;99.90
28654;DHT22;24320;56.980;24.336;2023-08-21T02:57:32;19.30;99.90
28654;DHT22;24320;56.980;24.336;2023-08-21T02:59:59;19.30;99.90
28654;DHT22;24320;56.980;24.336;2023-08-21T03:02:26;19.30;99.90
28654;DHT22;24320;56.980;24.336;2023-08-21T03:04:54;19.40;99.90
28654;DHT22;24320;56.980;24.336;2023-08-21T03:07:21;19.40;99.90
28654;DHT22;24320;56.980;24.336;2023-08-21T03:09:48;19.40;99.90
28654;DHT22;24320;56.980;24.336;2023-08-21T03:12:15;19.40;99.90
28654;DHT22;24320;56.980;24.336;2023-08-21T03:14:42;19.50;99.90
28654;DHT22;24320;56.980;24.336;2023-08-21T03:17:10;19.50;99.90
28654;DHT22;24320;56.980;24.336;2023-08-21T03:19:37;19.50;99.90
28654;DHT22;24320;56.980;24.336;2023-08-21T03:22:04;19.50;99.90
28654;DHT22;24320;56.980;24.336;2023-08-21T03:24:31;19.50;99.90
28654;DHT22;24320;56.980;24.336;2023-08-21T03:26:58;19.50;99.90
28654;DHT22;24320;56.980;24.336;2023-08-21T03:29:25;19.50;99.90
28654;DHT22;24320;56.980;24.336;2023-08-21T03:31:53;19.50;99.90
28654;DHT22;24320;56.980;24.336;2023-08-21T03:34:23;19.50;99.90
28654;DHT22;24320;56.980;24.336;2023-08-21T03:36:51;19.50;99.90
28654;DHT22;24320;56.980;24.336;2023-08-21T03:39:18;19.60;99.90
28654;DHT22;24320;56.980;24.336;2023-08-21T03:41:45;19.60;99.90
28654;DHT22;24320;56.980;24.336;2023-08-21T03:44:12;19.60;99.90
28654;DHT22;24320;56.980;24.336;2023-08-21T03:46:39;19.60;99.90
28654;DHT22;24320;56.980;24.336;2023-08-21T03:49:06;19.60;99.90
28654;DHT22;24320;56.980;24.336;2023-08-21T03:51:33;19.60;99.90
28654;DHT22;24320;56.980;24.336;2023-08-21T03:54:00;19.70;99.90
28654;DHT22;24320;56.980;24.336;2023-08-21T03:56:27;19.70;99.90
28654;DHT22;24320;56.980;24.336;2023-08-21T03:58:54;19.70;99.90
28654;DHT22;24320;56.980;24.336;2023-08-21T04:01:22;19.70;99.90
28654;DHT22;24320;56.980;24.336;2023-08-21T04:03:49;19.80;99.90
28654;DHT22;24320;56.980;24.336;2023-08-21T04:06:16;19.80;99.90
28654;DHT22;24320;56.980;24.336;2023-08-21T04:08:43;19.80;99.90
28654;DHT22;24320;56.980;24.336;2023-08-21T04:11:10;19.80;99.90
28654;DHT22;24320;56.980;24.336;2023-08-21T04:13:37;19.80;99.90
28654;DHT22;24320;56.980;24.336;2023-08-21T04:16:04;19.80;99.90
28654;DHT22;24320;56.980;24.336;2023-08-21T04:18:31;19.80;99.90
28654;DHT22;24320;56.980;24.336;2023-08-21T04:21:08;19.80;99.90
28654;DHT22;24320;56.980;24.336;2023-08-21T04:23:36;19.80;99.90
28654;DHT22;24320;56.980;24.336;2023-08-21T04:26:03;19.80;99.90
28654;DHT22;24320;56.980;24.336;2023-08-21T04:28:32;19.90;99.90
28654;DHT22;24320;56.980;24.336;2023-08-21T04:30:59;19.90;99.90
28654;DHT22;24320;56.980;24.336;2023-08-21T04:33:28;20.00;99.90
28654;DHT22;24320;56.980;24.336;2023-08-21T04:35:58;20.00;99.90
28654;DHT22;24320;56.980;24.336;2023-08-21T04:38:26;20.00;99.90
28654;DHT22;24320;56.980;24.336;2023-08-21T04:40:53;20.00;99.90
28654;DHT22;24320;56.980;24.336;2023-08-21T04:43:20;20.00;99.90
28654;DHT22;24320;56.980;24.336;2023-08-21T04:45:50;20.00;99.90
28654;DHT22;24320;56.980;24.336;2023-08-21T04:48:17;20.00;99.90
28654;DHT22;24320;56.980;24.336;2023-08-21T04:50:45;20.00;99.90
28654;DHT22;24320;56.980;24.336;2023-08-21T04:53:12;20.00;99.90
28654;DHT22;24320;56.980;24.336;2023-08-21T04:55:40;20.00;99.90
28654;DHT22;24320;56.980;24.336;2023-08-21T04:58:08;20.00;99.90
28654;DHT22;24320;56.980;24.336;2023-08-21T05:00:36;20.00;99.90
28654;DHT22;24320;56.980;24.336;2023-08-21T05:03:03;19.90;99.90
28654;DHT22;24320;56.980;24.336;2023-08-21T05:05:30;19.90;99.90
28654;DHT22;24320;56.980;24.336;2023-08-21T05:07:57;20.00;99.90
28654;DHT22;24320;56.980;24.336;2023-08-21T05:10:24;20.00;99.90
28654;DHT22;24320;56.980;24.336;2023-08-21T05:12:51;19.90;99.90
28654;DHT22;24320;56.980;24.336;2023-08-21T05:15:18;19.90;99.90
28654;DHT22;24320;56.980;24.336;2023-08-21T05:17:45;19.90;99.90
28654;DHT22;24320;56.980;24.336;2023-08-21T05:20:12;20.00;99.90
28654;DHT22;24320;56.980;24.336;2023-08-21T05:22:41;20.00;99.90
28654;DHT22;24320;56.980;24.336;2023-08-21T05:25:09;20.10;99.90
28654;DHT22;24320;56.980;24.336;2023-08-21T05:27:36;20.10;99.90
28654;DHT22;24320;56.980;24.336;2023-08-21T05:30:04;20.10;99.90
28654;DHT22;24320;56.980;24.336;2023-08-21T05:32:31;20.10;99.90
28654;DHT22;24320;56.980;24.336;2023-08-21T05:34:58;20.10;99.90
28654;DHT22;24320;56.980;24.336;2023-08-21T05:37:25;20.20;99.90
28654;DHT22;24320;56.980;24.336;2023-08-21T05:39:53;20.20;99.90
28654;DHT22;24320;56.980;24.336;2023-08-21T05:42:20;20.20;99.90
28654;DHT22;24320;56.980;24.336;2023-08-21T05:44:48;20.30;99.90
28654;DHT22;24320;56.980;24.336;2023-08-21T05:47:15;20.30;99.90
28654;DHT22;24320;56.980;24.336;2023-08-21T05:49:42;20.30;99.90
28654;DHT22;24320;56.980;24.336;2023-08-21T05:52:09;20.30;99.90
28654;DHT22;24320;56.980;24.336;2023-08-21T05:54:36;20.40;99.90
28654;DHT22;24320;56.980;24.336;2023-08-21T05:57:04;20.40;99.90
28654;DHT22;24320;56.980;24.336;2023-08-21T05:59:32;20.40;99.90
28654;DHT22;24320;56.980;24.336;2023-08-21T06:01:59;20.40;99.90
28654;DHT22;24320;56.980;24.336;2023-08-21T06:04:26;20.40;99.90
28654;DHT22;24320;56.980;24.336;2023-08-21T06:06:54;20.40;99.90
28654;DHT22;24320;56.980;24.336;2023-08-21T06:09:22;20.40;99.90
28654;DHT22;24320;56.980;24.336;2023-08-21T06:11:49;20.50;99.90
28654;DHT22;24320;56.980;24.336;2023-08-21T06:14:16;20.50;99.90
28654;DHT22;24320;56.980;24.336;2023-08-21T06:16:43;20.50;99.90
28654;DHT22;24320;56.980;24.336;2023-08-21T06:19:12;20.50;99.90
28654;DHT22;24320;56.980;24.336;2023-08-21T06:21:39;20.40;99.90
28654;DHT22;24320;56.980;24.336;2023-08-21T06:24:06;20.50;99.90
28654;DHT22;24320;56.980;24.336;2023-08-21T06:26:33;20.50;99.90
28654;DHT22;24320;56.980;24.336;2023-08-21T06:29:00;20.40;99.90
28654;DHT22;24320;56.980;24.336;2023-08-21T06:31:27;20.50;99.90
28654;DHT22;24320;56.980;24.336;2023-08-21T06:33:54;20.50;99.90
28654;DHT22;24320;56.980;24.336;2023-08-21T06:36:21;20.40;99.90
28654;DHT22;24320;56.980;24.336;2023-08-21T06:38:48;20.50;99.90
28654;DHT22;24320;56.980;24.336;2023-08-21T06:41:15;20.50;99.90
28654;DHT22;24320;56.980;24.336;2023-08-21T06:43:43;20.50;99.90
28654;DHT22;24320;56.980;24.336;2023-08-21T06:46:11;20.50;99.90
28654;DHT22;24320;56.980;24.336;2023-08-21T06:48:40;20.50;99.90
28654;DHT22;24320;56.980;24.336;2023-08-21T06:51:10;20.50;99.90
28654;DHT22;24320;56.980;24.336;2023-08-21T06:53:40;20.50;99.90
28654;DHT22;24320;56.980;24.336;2023-08-21T06:56:07;20.50;99.90
28654;DHT22;24320;56.980;24.336;2023-08-21T06:58:34;20.50;99.90
28654;DHT22;24320;56.980;24.336;2023-08-21T07:01:01;20.50;99.90
28654;DHT22;24320;56.980;24.336;2023-08-21T07:03:28;20.50;99.90
28654;DHT22;24320;56.980;24.336;2023-08-21T07:05:56;20.50;99.90
28654;DHT22;24320;56.980;24.336;2023-08-21T07:08:24;20.60;99.90
28654;DHT22;24320;56.980;24.336;2023-08-21T07:10:53;20.70;99.90
28654;DHT22;24320;56.980;24.336;2023-08-21T07:13:20;20.80;99.90
28654;DHT22;24320;56.980;24.336;2023-08-21T07:15:47;20.90;99.90
28654;DHT22;24320;56.980;24.336;2023-08-21T07:18:14;21.00;99.90
28654;DHT22;24320;56.980;24.336;2023-08-21T07:20:42;21.00;99.90
28654;DHT22;24320;56.980;24.336;2023-08-21T07:23:09;21.20;99.90
28654;DHT22;24320;56.980;24.336;2023-08-21T07:25:36;21.30;99.90
28654;DHT22;24320;56.980;24.336;2023-08-21T07:28:03;21.30;99.90
28654;DHT22;24320;56.980;24.336;2023-08-21T07:30:30;21.30;99.90
28654;DHT22;24320;56.980;24.336;2023-08-21T07:33:02;21.30;99.90
28654;DHT22;24320;56.980;24.336;2023-08-21T07:35:29;21.30;99.90
28654;DHT22;24320;56.980;24.336;2023-08-21T07:37:59;21.30;99.90
28654;DHT22;24320;56.980;24.336;2023-08-21T07:40:26;21.40;99.90
28654;DHT22;24320;56.980;24.336;2023-08-21T07:42:53;21.50;99.90
28654;DHT22;24320;56.980;24.336;2023-08-21T07:45:20;21.60;99.90
28654;DHT22;24320;56.980;24.336;2023-08-21T07:47:48;21.70;99.90
28654;DHT22;24320;56.980;24.336;2023-08-21T07:50:30;21.70;99.90
28654;DHT22;24320;56.980;24.336;2023-08-21T07:52:57;21.80;99.90
28654;DHT22;24320;56.980;24.336;2023-08-21T07:55:24;21.90;99.90
28654;DHT22;24320;56.980;24.336;2023-08-21T07:57:51;21.90;99.90
28654;DHT22;24320;56.980;24.336;2023-08-21T08:00:19;21.90;99.90
28654;DHT22;24320;56.980;24.336;2023-08-21T08:02:46;21.90;99.90
28654;DHT22;24320;56.980;24.336;2023-08-21T08:05:13;21.90;99.90
28654;DHT22;24320;56.980;24.336;2023-08-21T08:07:40;21.90;99.90
28654;DHT22;24320;56.980;24.336;2023-08-21T08:10:07;21.90;99.90
28654;DHT22;24320;56.980;24.336;2023-08-21T08:12:34;21.90;99.90
28654;DHT22;24320;56.980;24.336;2023-08-21T08:15:02;21.90;99.90
28654;DHT22;24320;56.980;24.336;2023-08-21T08:17:29;21.90;99.90
28654;DHT22;24320;56.980;24.336;2023-08-21T08:19:56;21.80;99.90
28654;DHT22;24320;56.980;24.336;2023-08-21T08:22:23;21.70;99.90
28654;DHT22;24320;56.980;24.336;2023-08-21T08:24:50;21.70;99.90
28654;DHT22;24320;56.980;24.336;2023-08-21T08:27:17;21.70;99.90
28654;DHT22;24320;56.980;24.336;2023-08-21T08:29:44;21.80;99.90
28654;DHT22;24320;56.980;24.336;2023-08-21T08:32:11;21.80;99.90
28654;DHT22;24320;56.980;24.336;2023-08-21T08:34:38;22.00;99.90
28654;DHT22;24320;56.980;24.336;2023-08-21T08:37:05;22.00;99.90
28654;DHT22;24320;56.980;24.336;2023-08-21T08:39:32;22.10;99.90
28654;DHT22;24320;56.980;24.336;2023-08-21T08:42:03;22.10;99.90
28654;DHT22;24320;56.980;24.336;2023-08-21T08:44:34;22.10;99.90
28654;DHT22;24320;56.980;24.336;2023-08-21T08:47:02;22.20;99.90
28654;DHT22;24320;56.980;24.336;2023-08-21T08:49:30;22.30;99.90
28654;DHT22;24320;56.980;24.336;2023-08-21T08:51:59;22.40;99.90
28654;DHT22;24320;56.980;24.336;2023-08-21T08:54:27;22.50;99.90
28654;DHT22;24320;56.980;24.336;2023-08-21T08:56:54;22.50;99.90
28654;DHT22;24320;56.980;24.336;2023-08-21T08:59:21;22.50;99.90
28654;DHT22;24320;56.980;24.336;2023-08-21T09:01:48;22.50;99.90
28654;DHT22;24320;56.980;24.336;2023-08-21T09:04:16;22.60;99.90
28654;DHT22;24320;56.980;24.336;2023-08-21T09:06:43;22.50;99.90
28654;DHT22;24320;56.980;24.336;2023-08-21T09:09:10;22.40;99.90
28654;DHT22;24320;56.980;24.336;2023-08-21T09:11:43;22.20;99.90
28654;DHT22;24320;56.980;24.336;2023-08-21T09:14:11;22.00;99.90
28654;DHT22;24320;56.980;24.336;2023-08-21T09:16:59;21.90;99.90
28654;DHT22;24320;56.980;24.336;2023-08-21T09:19:27;21.80;99.90
28654;DHT22;24320;56.980;24.336;2023-08-21T09:21:54;21.80;99.90
28654;DHT22;24320;56.980;24.336;2023-08-21T09:24:21;21.90;99.90
28654;DHT22;24320;56.980;24.336;2023-08-21T09:26:50;22.20;99.90
28654;DHT22;24320;56.980;24.336;2023-08-21T09:29:17;22.50;99.90
28654;DHT22;24320;56.980;24.336;2023-08-21T09:31:46;22.70;99.90
28654;DHT22;24320;56.980;24.336;2023-08-21T09:34:13;22.90;99.90
28654;DHT22;24320;56.980;24.336;2023-08-21T09:36:41;23.10;99.90
28654;DHT22;24320;56.980;24.336;2023-08-21T09:39:15;23.30;99.90
28654;DHT22;24320;56.980;24.336;2023-08-21T09:41:55;23.50;99.90
28654;DHT22;24320;56.980;24.336;2023-08-21T09:44:22;23.50;99.90
28654;DHT22;24320;56.980;24.336;2023-08-21T09:46:49;23.70;99.90
28654;DHT22;24320;56.980;24.336;2023-08-21T09:49:17;24.10;99.90
28654;DHT22;24320;56.980;24.336;2023-08-21T09:51:45;24.40;99.90
28654;DHT22;24320;56.980;24.336;2023-08-21T09:54:12;24.60;99.90
28654;DHT22;24320;56.980;24.336;2023-08-21T09:56:40;24.50;99.90
28654;DHT22;24320;56.980;24.336;2023-08-21T09:59:08;24.50;99.90
28654;DHT22;24320;56.980;24.336;2023-08-21T10:01:36;24.40;99.90
28654;DHT22;24320;56.980;24.336;2023-08-21T10:04:04;24.40;99.90
28654;DHT22;24320;56.980;24.336;2023-08-21T10:06:32;24.40;99.90
28654;DHT22;24320;56.980;24.336;2023-08-21T10:09:00;24.50;99.90
28654;DHT22;24320;56.980;24.336;2023-08-21T10:11:27;24.70;99.90
28654;DHT22;24320;56.980;24.336;2023-08-21T10:13:55;24.80;99.90
28654;DHT22;24320;56.980;24.336;2023-08-21T10:16:23;24.90;99.90
28654;DHT22;24320;56.980;24.336;2023-08-21T10:18:51;25.10;99.90
28654;DHT22;24320;56.980;24.336;2023-08-21T10:21:20;25.20;99.90
28654;DHT22;24320;56.980;24.336;2023-08-21T10:23:54;25.30;99.90
28654;DHT22;24320;56.980;24.336;2023-08-21T10:26:22;25.30;99.90
28654;DHT22;24320;56.980;24.336;2023-08-21T10:31:42;25.20;99.90
28654;DHT22;24320;56.980;24.336;2023-08-21T10:34:12;25.00;99.90
28654;DHT22;24320;56.980;24.336;2023-08-21T10:41:41;24.20;99.90
28654;DHT22;24320;56.980;24.336;2023-08-21T10:44:34;24.30;99.90
28654;DHT22;24320;56.980;24.336;2023-08-21T10:47:21;24.30;99.90
28654;DHT22;24320;56.980;24.336;2023-08-21T10:49:55;24.40;99.90
28654;DHT22;24320;56.980;24.336;2023-08-21T10:52:24;24.40;99.90
28654;DHT22;24320;56.980;24.336;2023-08-21T10:54:53;24.30;99.90
28654;DHT22;24320;56.980;24.336;2023-08-21T10:57:23;24.30;99.90
28654;DHT22;24320;56.980;24.336;2023-08-21T11:02:38;24.80;99.90
28654;DHT22;24320;56.980;24.336;2023-08-21T11:05:07;25.10;99.90
28654;DHT22;24320;56.980;24.336;2023-08-21T11:07:39;25.30;99.90
28654;DHT22;24320;56.980;24.336;2023-08-21T11:10:08;25.40;99.90
28654;DHT22;24320;56.980;24.336;2023-08-21T11:12:47;25.30;99.90
28654;DHT22;24320;56.980;24.336;2023-08-21T11:15:16;25.30;99.90
28654;DHT22;24320;56.980;24.336;2023-08-21T11:20:30;24.70;99.90
28654;DHT22;24320;56.980;24.336;2023-08-21T11:23:05;24.40;99.90
28654;DHT22;24320;56.980;24.336;2023-08-21T11:25:39;24.30;99.90
28654;DHT22;24320;56.980;24.336;2023-08-21T11:28:07;24.20;99.90
28654;DHT22;24320;56.980;24.336;2023-08-21T11:30:35;24.20;99.90
28654;DHT22;24320;56.980;24.336;2023-08-21T11:33:13;24.10;99.90
28654;DHT22;24320;56.980;24.336;2023-08-21T11:35:41;24.10;99.90
28654;DHT22;24320;56.980;24.336;2023-08-21T11:38:21;24.10;99.90
28654;DHT22;24320;56.980;24.336;2023-08-21T11:40:59;24.20;99.90
28654;DHT22;24320;56.980;24.336;2023-08-21T11:43:36;24.10;99.90
28654;DHT22;24320;56.980;24.336;2023-08-21T11:46:07;24.00;99.90
28654;DHT22;24320;56.980;24.336;2023-08-21T11:48:37;24.00;99.90
28654;DHT22;24320;56.980;24.336;2023-08-21T11:51:05;23.90;99.90
28654;DHT22;24320;56.980;24.336;2023-08-21T11:53:33;24.00;99.90
28654;DHT22;24320;56.980;24.336;2023-08-21T11:56:00;24.20;99.90
28654;DHT22;24320;56.980;24.336;2023-08-21T11:58:28;24.30;99.90
28654;DHT22;24320;56.980;24.336;2023-08-21T12:01:04;24.30;99.90
28654;DHT22;24320;56.980;24.336;2023-08-21T12:03:36;24.30;99.90
28654;DHT22;24320;56.980;24.336;2023-08-21T12:06:07;24.50;99.90
28654;DHT22;24320;56.980;24.336;2023-08-21T12:08:36;24.70;99.90
28654;DHT22;24320;56.980;24.336;2023-08-21T12:11:03;24.80;99.90
28654;DHT22;24320;56.980;24.336;2023-08-21T12:13:30;24.70;99.90
28654;DHT22;24320;56.980;24.336;2023-08-21T12:16:01;24.70;99.90
28654;DHT22;24320;56.980;24.336;2023-08-21T12:18:29;24.70;99.90
28654;DHT22;24320;56.980;24.336;2023-08-21T12:20:56;25.00;99.90
28654;DHT22;24320;56.980;24.336;2023-08-21T12:23:24;25.20;99.90
28654;DHT22;24320;56.980;24.336;2023-08-21T12:25:51;25.50;99.90
28654;DHT22;24320;56.980;24.336;2023-08-21T12:28:18;25.60;99.90
28654;DHT22;24320;56.980;24.336;2023-08-21T12:30:45;25.60;99.90
28654;DHT22;24320;56.980;24.336;2023-08-21T12:33:13;25.40;99.90
28654;DHT22;24320;56.980;24.336;2023-08-21T12:35:50;25.30;99.90
28654;DHT22;24320;56.980;24.336;2023-08-21T12:38:17;25.10;99.90
28654;DHT22;24320;56.980;24.336;2023-08-21T12:40:44;25.00;99.90
28654;DHT22;24320;56.980;24.336;2023-08-21T12:43:11;24.80;99.90
28654;DHT22;24320;56.980;24.336;2023-08-21T12:45:38;24.60;99.90
28654;DHT22;24320;56.980;24.336;2023-08-21T12:48:05;24.50;99.90
28654;DHT22;24320;56.980;24.336;2023-08-21T12:50:33;24.40;99.90
28654;DHT22;24320;56.980;24.336;2023-08-21T12:53:00;24.30;99.90
28654;DHT22;24320;56.980;24.336;2023-08-21T12:55:28;24.30;99.90
28654;DHT22;24320;56.980;24.336;2023-08-21T12:57:56;24.30;99.90
28654;DHT22;24320;56.980;24.336;2023-08-21T13:02:56;24.00;99.90
28654;DHT22;24320;56.980;24.336;2023-08-21T13:05:23;23.90;99.90
28654;DHT22;24320;56.980;24.336;2023-08-21T13:07:50;23.80;99.90
28654;DHT22;24320;56.980;24.336;2023-08-21T13:10:17;23.60;99.90
28654;DHT22;24320;56.980;24.336;2023-08-21T13:12:44;23.40;99.90
28654;DHT22;24320;56.980;24.336;2023-08-21T13:15:11;23.20;99.90
28654;DHT22;24320;56.980;24.336;2023-08-21T13:17:38;23.00;99.90
28654;DHT22;24320;56.980;24.336;2023-08-21T13:20:07;22.80;99.90
28654;DHT22;24320;56.980;24.336;2023-08-21T13:22:55;22.70;99.90
28654;DHT22;24320;56.980;24.336;2023-08-21T13:25:23;22.70;99.90
28654;DHT22;24320;56.980;24.336;2023-08-21T13:27:54;22.60;99.90
28654;DHT22;24320;56.980;24.336;2023-08-21T13:30:21;22.70;99.90
28654;DHT22;24320;56.980;24.336;2023-08-21T13:32:49;22.90;99.90
28654;DHT22;24320;56.980;24.336;2023-08-21T13:35:16;23.20;99.90
28654;DHT22;24320;56.980;24.336;2023-08-21T13:37:44;23.40;99.90
28654;DHT22;24320;56.980;24.336;2023-08-21T13:40:11;23.70;99.90
28654;DHT22;24320;56.980;24.336;2023-08-21T13:42:41;23.80;99.90
28654;DHT22;24320;56.980;24.336;2023-08-21T13:45:12;24.00;99.90
28654;DHT22;24320;56.980;24.336;2023-08-21T13:47:41;24.00;99.90
28654;DHT22;24320;56.980;24.336;2023-08-21T13:50:10;24.00;99.90
28654;DHT22;24320;56.980;24.336;2023-08-21T13:52:37;24.10;99.90
28654;DHT22;24320;56.980;24.336;2023-08-21T13:55:12;24.10;99.90
28654;DHT22;24320;56.980;24.336;2023-08-21T13:57:39;24.20;99.90
28654;DHT22;24320;56.980;24.336;2023-08-21T14:00:08;24.30;99.90
28654;DHT22;24320;56.980;24.336;2023-08-21T14:02:40;24.40;99.90
28654;DHT22;24320;56.980;24.336;2023-08-21T14:05:09;24.50;99.90
28654;DHT22;24320;56.980;24.336;2023-08-21T14:07:38;24.60;99.90
28654;DHT22;24320;56.980;24.336;2023-08-21T14:10:07;24.70;99.90
28654;DHT22;24320;56.980;24.336;2023-08-21T14:12:34;24.70;99.90
28654;DHT22;24320;56.980;24.336;2023-08-21T14:15:05;24.70;99.90
28654;DHT22;24320;56.980;24.336;2023-08-21T14:17:33;24.70;99.90
28654;DHT22;24320;56.980;24.336;2023-08-21T14:20:00;24.70;99.90
28654;DHT22;24320;56.980;24.336;2023-08-21T14:22:27;24.40;99.90
28654;DHT22;24320;56.980;24.336;2023-08-21T14:24:54;24.40;99.90
28654;DHT22;24320;56.980;24.336;2023-08-21T14:27:21;24.30;99.90
28654;DHT22;24320;56.980;24.336;2023-08-21T14:29:49;24.20;99.90
28654;DHT22;24320;56.980;24.336;2023-08-21T14:32:16;23.90;99.90
28654;DHT22;24320;56.980;24.336;2023-08-21T14:34:43;23.80;99.90
28654;DHT22;24320;56.980;24.336;2023-08-21T14:37:10;23.70;99.90
28654;DHT22;24320;56.980;24.336;2023-08-21T14:39:42;23.70;99.90
28654;DHT22;24320;56.980;24.336;2023-08-21T14:42:13;23.80;99.90
28654;DHT22;24320;56.980;24.336;2023-08-21T14:44:40;23.80;99.90
28654;DHT22;24320;56.980;24.336;2023-08-21T14:47:07;23.90;99.90
28654;DHT22;24320;56.980;24.336;2023-08-21T14:49:34;23.90;99.90
28654;DHT22;24320;56.980;24.336;2023-08-21T14:52:02;24.00;99.90
28654;DHT22;24320;56.980;24.336;2023-08-21T14:54:30;24.20;99.90
28654;DHT22;24320;56.980;24.336;2023-08-21T14:56:57;24.30;99.90
28654;DHT22;24320;56.980;24.336;2023-08-21T14:59:24;24.50;99.90
28654;DHT22;24320;56.980;24.336;2023-08-21T15:01:52;24.50;99.90
28654;DHT22;24320;56.980;24.336;2023-08-21T15:04:19;24.60;99.90
28654;DHT22;24320;56.980;24.336;2023-08-21T15:06:46;24.50;99.90
28654;DHT22;24320;56.980;24.336;2023-08-21T15:09:13;24.50;99.90
28654;DHT22;24320;56.980;24.336;2023-08-21T15:11:40;24.50;99.90
28654;DHT22;24320;56.980;24.336;2023-08-21T15:14:11;24.50;99.90
28654;DHT22;24320;56.980;24.336;2023-08-21T15:16:38;24.50;99.90
28654;DHT22;24320;56.980;24.336;2023-08-21T15:19:05;24.40;99.90
28654;DHT22;24320;56.980;24.336;2023-08-21T15:21:32;24.30;99.90
28654;DHT22;24320;56.980;24.336;2023-08-21T15:24:00;24.30;99.90
28654;DHT22;24320;56.980;24.336;2023-08-21T15:26:31;24.20;99.90
28654;DHT22;24320;56.980;24.336;2023-08-21T15:28:59;23.90;99.90
28654;DHT22;24320;56.980;24.336;2023-08-21T15:31:26;23.50;99.90
28654;DHT22;24320;56.980;24.336;2023-08-21T15:33:53;23.30;99.90
28654;DHT22;24320;56.980;24.336;2023-08-21T15:36:20;23.10;99.90
28654;DHT22;24320;56.980;24.336;2023-08-21T15:38:47;22.90;99.90
28654;DHT22;24320;56.980;24.336;2023-08-21T15:41:14;22.80;99.90
28654;DHT22;24320;56.980;24.336;2023-08-21T15:43:41;22.70;99.90
28654;DHT22;24320;56.980;24.336;2023-08-21T15:46:08;22.60;99.90